Time;durP1;ratioP1;P1;durP2;ratioP2;P2;SDS_P1;SDS_P2;PMS_P1;PMS_P2;Temp;Humidity;BMP_temperature;BMP_pressure;BME280_temperature;BME280_humidity;BME280_pressure;Samples;Min_cycle;Max_cycle;Signal;HPM_P1;HPM_P2
2023/09/28 00:01:59;;;;;;;;;;;18.30;99.90;;;;;;5105253;28;20479;-75
2023/09/28 00:04:24;;;;;;;;;;;18.30;99.90;;;;;;5083066;28;20348;-75
2023/09/28 00:06:50;;;;;;;;;;;18.30;99.90;;;;;;5136546;27;19932;-75
2023/09/28 00:09:16;;;;;;;;;;;18.30;99.90;;;;;;5098672;28;20773;-75
2023/09/28 00:11:42;;;;;;;;;;;18.20;99.90;;;;;;5102295;27;19975;-75
2023/09/28 00:14:08;;;;;;;;;;;18.30;99.90;;;;;;5086369;28;20317;-75
2023/09/28 00:16:33;;;;;;;;;;;18.20;99.90;;;;;;5115084;27;19954;-75
2023/09/28 00:18:59;;;;;;;;;;;18.20;99.90;;;;;;5099899;28;19977;-75
2023/09/28 00:21:25;;;;;;;;;;;18.20;99.90;;;;;;5101604;28;20035;-75
2023/09/28 00:23:52;;;;;;;;;;;18.10;99.90;;;;;;5101352;28;19928;-75
2023/09/28 00:26:19;;;;;;;;;;;18.20;99.90;;;;;;5083865;28;19924;-75
2023/09/28 00:28:45;;;;;;;;;;;18.10;99.90;;;;;;5113475;27;20458;-75
2023/09/28 00:31:10;;;;;;;;;;;18.10;99.90;;;;;;5101007;28;20006;-75
2023/09/28 00:33:36;;;;;;;;;;;18.10;99.90;;;;;;5102198;28;20001;-75
2023/09/28 00:36:01;;;;;;;;;;;18.10;99.90;;;;;;5129618;27;20354;-75
2023/09/28 00:38:27;;;;;;;;;;;18.20;99.90;;;;;;5088934;28;19923;-75
2023/09/28 00:40:53;;;;;;;;;;;18.10;99.90;;;;;;5078026;28;19924;-75
2023/09/28 00:43:25;;;;;;;;;;;18.10;99.90;;;;;;5105713;28;20450;-75
2023/09/28 00:45:51;;;;;;;;;;;18.10;99.90;;;;;;5100858;28;19970;-74
2023/09/28 00:48:17;;;;;;;;;;;18.10;99.90;;;;;;5086573;28;20629;-76
2023/09/28 00:50:42;;;;;;;;;;;18.10;99.90;;;;;;5116753;27;19935;-75
2023/09/28 00:53:08;;;;;;;;;;;18.10;99.90;;;;;;5098917;28;19977;-75
2023/09/28 00:55:36;;;;;;;;;;;18.20;99.90;;;;;;5086365;28;20535;-75
2023/09/28 00:58:03;;;;;;;;;;;18.20;99.90;;;;;;5083274;28;20043;-75
2023/09/28 01:00:31;;;;;;;;;;;18.20;99.90;;;;;;5103652;28;20215;-75
2023/09/28 01:02:59;;;;;;;;;;;18.30;99.90;;;;;;5088764;28;19928;-75
2023/09/28 01:05:31;;;;;;;;;;;18.30;99.90;;;;;;5101106;28;19974;-75
2023/09/28 01:08:18;;;;;;;;;;;18.30;99.90;;;;;;5087865;28;19930;-75
2023/09/28 01:10:44;;;;;;;;;;;18.40;99.90;;;;;;5086124;28;20447;-75
2023/09/28 01:13:11;;;;;;;;;;;18.40;99.90;;;;;;5084010;28;19927;-76
2023/09/28 01:15:40;;;;;;;;;;;18.40;99.90;;;;;;5085566;28;19993;-76
2023/09/28 01:18:09;;;;;;;;;;;18.50;99.90;;;;;;5101693;28;20386;-75
2023/09/28 01:20:37;;;;;;;;;;;18.50;99.90;;;;;;5080277;28;19924;-75
2023/09/28 01:23:06;;;;;;;;;;;18.50;99.90;;;;;;5100173;28;20345;-75
2023/09/28 01:25:32;;;;;;;;;;;18.60;99.90;;;;;;5103546;27;20879;-75
2023/09/28 01:27:58;;;;;;;;;;;18.60;99.90;;;;;;5102411;28;20386;-75
2023/09/28 01:30:24;;;;;;;;;;;18.60;99.90;;;;;;5087186;28;19930;-75
2023/09/28 01:32:49;;;;;;;;;;;18.60;99.90;;;;;;5094423;27;20417;-76
2023/09/28 01:35:15;;;;;;;;;;;18.50;99.90;;;;;;5090341;28;20352;-75
2023/09/28 01:38:09;;;;;;;;;;;18.50;99.90;;;;;;5081689;28;20007;-76
2023/09/28 01:40:35;;;;;;;;;;;18.50;99.90;;;;;;5083412;28;20488;-76
2023/09/28 01:43:00;;;;;;;;;;;18.50;99.90;;;;;;5084618;28;19993;-76
2023/09/28 01:45:26;;;;;;;;;;;18.50;99.90;;;;;;5081514;28;20002;-76
2023/09/28 01:47:51;;;;;;;;;;;18.40;99.90;;;;;;5099096;28;20022;-75
2023/09/28 01:50:18;;;;;;;;;;;18.40;99.90;;;;;;5086868;28;20673;-75
2023/09/28 01:52:44;;;;;;;;;;;18.40;99.90;;;;;;5102064;28;19923;-75
2023/09/28 01:55:09;;;;;;;;;;;18.30;99.90;;;;;;5096995;28;19938;-76
2023/09/28 01:57:35;;;;;;;;;;;18.30;99.90;;;;;;5083709;28;19923;-76
2023/09/28 02:00:05;;;;;;;;;;;18.30;99.90;;;;;;5097926;28;19924;-75
2023/09/28 02:02:34;;;;;;;;;;;18.20;99.90;;;;;;5085002;28;19935;-75
2023/09/28 02:05:01;;;;;;;;;;;18.20;99.90;;;;;;5092977;28;19930;-74
2023/09/28 02:07:26;;;;;;;;;;;18.20;99.90;;;;;;5092158;28;19953;-75
2023/09/28 02:09:52;;;;;;;;;;;18.10;99.90;;;;;;5086217;28;19935;-76
2023/09/28 02:12:17;;;;;;;;;;;18.10;99.90;;;;;;5105047;27;19930;-75
2023/09/28 02:14:43;;;;;;;;;;;18.00;99.90;;;;;;5098945;28;20162;-76
2023/09/28 02:17:09;;;;;;;;;;;18.00;99.90;;;;;;5117084;27;19940;-75
2023/09/28 02:19:35;;;;;;;;;;;18.00;99.90;;;;;;5071077;28;20672;-76
2023/09/28 02:22:02;;;;;;;;;;;18.00;99.90;;;;;;5111283;27;20010;-76
2023/09/28 02:24:27;;;;;;;;;;;17.90;99.90;;;;;;5091663;28;19924;-76
2023/09/28 02:26:53;;;;;;;;;;;17.80;99.90;;;;;;5093518;28;19931;-75
2023/09/28 02:29:19;;;;;;;;;;;17.90;99.90;;;;;;5077203;28;19928;-76
2023/09/28 02:31:45;;;;;;;;;;;17.80;99.90;;;;;;5109920;27;20421;-75
2023/09/28 02:34:10;;;;;;;;;;;17.70;99.90;;;;;;5068815;28;19946;-76
2023/09/28 02:36:36;;;;;;;;;;;17.70;99.90;;;;;;5101689;28;19923;-76
2023/09/28 02:39:11;;;;;;;;;;;17.70;99.90;;;;;;5110089;27;20237;-76
2023/09/28 02:41:37;;;;;;;;;;;17.60;99.90;;;;;;5134444;27;19931;-76
2023/09/28 02:44:02;;;;;;;;;;;17.60;99.90;;;;;;5096130;28;20033;-76
2023/09/28 02:46:28;;;;;;;;;;;17.60;99.90;;;;;;5095258;28;19923;-76
2023/09/28 02:48:55;;;;;;;;;;;17.50;99.90;;;;;;5098851;28;19932;-76
2023/09/28 02:51:20;;;;;;;;;;;17.50;99.90;;;;;;5074729;28;19957;-76
2023/09/28 02:53:46;;;;;;;;;;;17.50;99.90;;;;;;5133482;27;19928;-76
2023/09/28 02:56:12;;;;;;;;;;;17.40;99.90;;;;;;5093179;28;19935;-75
2023/09/28 02:58:40;;;;;;;;;;;17.40;99.90;;;;;;5090176;28;19928;-76
2023/09/28 03:01:08;;;;;;;;;;;17.40;99.90;;;;;;5082086;28;19924;-75
2023/09/28 03:03:33;;;;;;;;;;;17.30;99.90;;;;;;5122220;27;20519;-76
2023/09/28 03:05:59;;;;;;;;;;;17.30;99.90;;;;;;5091524;28;20087;-76
2023/09/28 03:08:25;;;;;;;;;;;17.20;99.90;;;;;;5079996;28;20035;-75
2023/09/28 03:10:53;;;;;;;;;;;17.20;99.90;;;;;;5096652;28;20349;-76
2023/09/28 03:13:19;;;;;;;;;;;17.20;99.90;;;;;;5103563;28;19931;-75
2023/09/28 03:15:45;;;;;;;;;;;17.10;99.90;;;;;;5102405;28;20439;-75
2023/09/28 03:18:11;;;;;;;;;;;17.10;99.90;;;;;;5097352;28;19939;-75
2023/09/28 03:20:38;;;;;;;;;;;17.10;99.90;;;;;;5105047;28;19977;-75
2023/09/28 03:23:04;;;;;;;;;;;17.10;99.90;;;;;;5110105;27;20409;-75
2023/09/28 03:25:30;;;;;;;;;;;17.00;99.90;;;;;;5097203;28;19924;-75
2023/09/28 03:27:56;;;;;;;;;;;17.00;99.90;;;;;;5083643;28;20378;-74
2023/09/28 03:30:23;;;;;;;;;;;16.90;99.90;;;;;;5103011;28;19955;-75
2023/09/28 03:32:49;;;;;;;;;;;16.90;99.90;;;;;;5105972;28;20019;-76
2023/09/28 03:35:16;;;;;;;;;;;16.80;99.90;;;;;;5100385;28;20014;-75
2023/09/28 03:37:42;;;;;;;;;;;16.80;99.90;;;;;;5104962;28;19980;-76
2023/09/28 03:40:10;;;;;;;;;;;16.80;99.90;;;;;;5082952;28;19924;-76
2023/09/28 03:42:39;;;;;;;;;;;16.80;99.90;;;;;;5102554;28;20670;-76
2023/09/28 03:45:08;;;;;;;;;;;16.70;99.90;;;;;;5084400;28;20385;-76
2023/09/28 03:47:35;;;;;;;;;;;16.70;99.90;;;;;;5088569;28;19923;-76
2023/09/28 03:50:00;;;;;;;;;;;16.70;99.90;;;;;;5131349;27;20630;-75
2023/09/28 03:52:26;;;;;;;;;;;16.70;99.90;;;;;;5101091;28;19931;-76
2023/09/28 03:54:51;;;;;;;;;;;16.70;99.90;;;;;;5102786;28;19928;-76
2023/09/28 03:57:17;;;;;;;;;;;16.70;99.90;;;;;;5087733;28;19947;-75
2023/09/28 03:59:43;;;;;;;;;;;16.70;99.90;;;;;;5099169;28;19932;-75
2023/09/28 04:02:13;;;;;;;;;;;16.60;99.90;;;;;;5134016;27;19924;-76
2023/09/28 04:04:42;;;;;;;;;;;16.60;99.90;;;;;;5115606;27;19927;-76
2023/09/28 04:07:08;;;;;;;;;;;16.60;99.90;;;;;;5073448;28;20024;-76
2023/09/28 04:09:34;;;;;;;;;;;16.60;99.90;;;;;;5090014;28;19924;-75
2023/09/28 04:12:00;;;;;;;;;;;16.50;99.90;;;;;;5109047;27;19967;-76
2023/09/28 04:14:26;;;;;;;;;;;16.50;99.90;;;;;;5124581;27;20421;-75
2023/09/28 04:16:53;;;;;;;;;;;16.50;99.90;;;;;;5076692;28;20069;-76
2023/09/28 04:19:18;;;;;;;;;;;16.50;99.90;;;;;;5080958;28;19932;-75
2023/09/28 04:21:44;;;;;;;;;;;16.40;99.90;;;;;;5087018;28;19924;-76
2023/09/28 04:24:10;;;;;;;;;;;16.40;99.90;;;;;;5081546;28;19924;-75
2023/09/28 04:26:36;;;;;;;;;;;16.40;99.90;;;;;;5096189;28;20416;-76
2023/09/28 04:29:01;;;;;;;;;;;16.40;99.90;;;;;;5104313;27;19939;-76
2023/09/28 04:31:27;;;;;;;;;;;16.40;99.90;;;;;;5099275;28;19924;-76
2023/09/28 04:33:53;;;;;;;;;;;16.40;99.90;;;;;;5131025;27;19938;-76
2023/09/28 04:36:18;;;;;;;;;;;16.40;99.90;;;;;;5114736;27;19928;-76
2023/09/28 04:38:44;;;;;;;;;;;16.40;99.90;;;;;;5071086;28;20582;-75
2023/09/28 04:41:11;;;;;;;;;;;16.40;99.90;;;;;;5071617;28;19931;-75
2023/09/28 04:43:36;;;;;;;;;;;16.40;99.90;;;;;;5098816;27;19932;-75
2023/09/28 04:46:05;;;;;;;;;;;16.40;99.90;;;;;;5081857;28;20644;-75
2023/09/28 04:48:31;;;;;;;;;;;16.40;99.90;;;;;;5088512;28;19927;-76
2023/09/28 04:50:57;;;;;;;;;;;16.40;99.90;;;;;;5100129;28;19924;-76
2023/09/28 04:53:23;;;;;;;;;;;16.40;99.90;;;;;;5136861;27;19973;-76
2023/09/28 04:55:51;;;;;;;;;;;16.40;99.90;;;;;;5104891;28;19967;-76
2023/09/28 04:58:17;;;;;;;;;;;16.40;99.90;;;;;;5102768;28;20069;-75
2023/09/28 05:00:42;;;;;;;;;;;16.40;99.90;;;;;;5085227;28;20022;-76
2023/09/28 05:03:11;;;;;;;;;;;16.40;99.90;;;;;;5084568;28;19923;-76
2023/09/28 05:05:37;;;;;;;;;;;16.40;99.90;;;;;;5085931;28;19924;-76
2023/09/28 05:08:03;;;;;;;;;;;16.40;99.90;;;;;;5081786;28;20078;-76
2023/09/28 05:10:29;;;;;;;;;;;16.40;99.90;;;;;;5102634;28;19981;-75
2023/09/28 05:12:55;;;;;;;;;;;16.40;99.90;;;;;;5099182;28;19931;-75
2023/09/28 05:15:20;;;;;;;;;;;16.40;99.90;;;;;;5101693;28;20253;-76
2023/09/28 05:17:47;;;;;;;;;;;16.40;99.90;;;;;;5099817;27;19974;-75
2023/09/28 05:20:12;;;;;;;;;;;16.40;99.90;;;;;;5104226;28;19927;-76
2023/09/28 05:22:43;;;;;;;;;;;16.40;99.90;;;;;;5096999;28;20091;-76
2023/09/28 05:25:12;;;;;;;;;;;16.40;99.90;;;;;;5099779;28;19935;-75
2023/09/28 05:27:41;;;;;;;;;;;16.40;99.90;;;;;;5096680;28;20500;-76
2023/09/28 05:30:07;;;;;;;;;;;16.40;99.90;;;;;;5117669;27;19923;-76
2023/09/28 05:32:36;;;;;;;;;;;16.40;99.90;;;;;;5097339;28;19924;-77
2023/09/28 05:35:01;;;;;;;;;;;16.40;99.90;;;;;;5095255;28;19928;-76
2023/09/28 05:37:27;;;;;;;;;;;16.40;99.90;;;;;;5084033;28;19928;-77
2023/09/28 05:39:53;;;;;;;;;;;16.30;99.90;;;;;;5096592;28;19985;-77
2023/09/28 05:42:22;;;;;;;;;;;16.30;99.90;;;;;;5134471;27;20067;-77
2023/09/28 05:44:48;;;;;;;;;;;16.30;99.90;;;;;;5112191;27;19928;-77
2023/09/28 05:47:15;;;;;;;;;;;16.30;99.90;;;;;;5126966;27;20018;-77
2023/09/28 05:49:42;;;;;;;;;;;16.30;99.90;;;;;;5094614;28;19945;-77
2023/09/28 05:52:07;;;;;;;;;;;16.30;99.90;;;;;;5097061;28;19968;-77
2023/09/28 05:54:33;;;;;;;;;;;16.30;99.90;;;;;;5083856;28;20313;-77
2023/09/28 05:56:58;;;;;;;;;;;16.20;99.90;;;;;;5098467;28;19928;-77
2023/09/28 05:59:24;;;;;;;;;;;16.20;99.90;;;;;;5081722;28;19924;-77
2023/09/28 06:01:50;;;;;;;;;;;16.30;99.90;;;;;;5096546;28;20285;-76
2023/09/28 06:04:15;;;;;;;;;;;16.20;99.90;;;;;;5100443;28;19931;-77
2023/09/28 06:06:41;;;;;;;;;;;16.20;99.90;;;;;;5103055;27;19936;-79
2023/09/28 06:09:06;;;;;;;;;;;16.20;99.90;;;;;;5099136;28;20004;-77
2023/09/28 06:11:32;;;;;;;;;;;16.20;99.90;;;;;;5099280;28;19934;-77
2023/09/28 06:13:58;;;;;;;;;;;16.20;99.90;;;;;;5100270;28;20390;-78
2023/09/28 06:16:25;;;;;;;;;;;16.20;99.90;;;;;;5098244;28;19924;-78
2023/09/28 06:18:53;;;;;;;;;;;16.20;99.90;;;;;;5099325;28;20474;-78
2023/09/28 06:21:18;;;;;;;;;;;16.20;99.90;;;;;;5101246;27;19931;-78
2023/09/28 06:23:44;;;;;;;;;;;16.20;99.90;;;;;;5083101;28;19924;-78
2023/09/28 06:26:09;;;;;;;;;;;16.20;99.90;;;;;;5100184;28;20331;-78
2023/09/28 06:28:35;;;;;;;;;;;16.20;99.90;;;;;;5079555;28;19970;-78
2023/09/28 06:31:01;;;;;;;;;;;16.20;99.90;;;;;;5079952;28;19943;-76
2023/09/28 06:33:27;;;;;;;;;;;16.20;99.90;;;;;;5112342;27;19927;-76
2023/09/28 06:35:56;;;;;;;;;;;16.20;99.90;;;;;;5082162;28;19980;-77
2023/09/28 06:38:22;;;;;;;;;;;16.20;99.90;;;;;;5099619;27;19974;-76
2023/09/28 06:40:48;;;;;;;;;;;16.20;99.90;;;;;;5102600;28;19924;-76
2023/09/28 06:43:14;;;;;;;;;;;16.20;99.90;;;;;;5081340;28;20393;-80
2023/09/28 06:45:40;;;;;;;;;;;16.20;99.90;;;;;;5086750;28;19924;-80
2023/09/28 06:48:07;;;;;;;;;;;16.30;99.90;;;;;;5081059;28;19923;-81
2023/09/28 06:50:34;;;;;;;;;;;16.30;99.90;;;;;;5102740;28;19927;-80
2023/09/28 06:53:02;;;;;;;;;;;16.30;99.90;;;;;;5102187;28;20311;-81
2023/09/28 06:55:27;;;;;;;;;;;16.30;99.90;;;;;;5086647;28;20022;-81
2023/09/28 06:57:53;;;;;;;;;;;16.30;99.90;;;;;;5094128;28;20006;-80
2023/09/28 07:00:19;;;;;;;;;;;16.30;99.90;;;;;;5099478;28;20301;-80
2023/09/28 07:02:47;;;;;;;;;;;16.30;99.90;;;;;;5083380;28;19931;-80
2023/09/28 07:05:19;;;;;;;;;;;16.40;99.90;;;;;;5099939;28;20344;-81
2023/09/28 07:07:48;;;;;;;;;;;16.40;99.90;;;;;;5081691;28;19924;-76
2023/09/28 07:10:13;;;;;;;;;;;16.40;99.90;;;;;;5120531;27;19932;-75
2023/09/28 07:12:40;;;;;;;;;;;16.50;99.90;;;;;;5099534;28;20467;-76
2023/09/28 07:15:07;;;;;;;;;;;16.50;99.90;;;;;;5080069;28;19968;-76
2023/09/28 07:17:33;;;;;;;;;;;16.60;99.90;;;;;;5082724;28;19930;-76
2023/09/28 07:19:59;;;;;;;;;;;16.60;99.90;;;;;;5097404;28;19928;-76
2023/09/28 07:22:24;;;;;;;;;;;16.60;99.90;;;;;;5097734;28;19924;-75
2023/09/28 07:24:50;;;;;;;;;;;16.60;99.90;;;;;;5099468;28;19924;-75
2023/09/28 07:27:16;;;;;;;;;;;16.70;99.90;;;;;;5100800;28;20476;-76
2023/09/28 07:29:42;;;;;;;;;;;16.80;99.90;;;;;;5083904;28;19932;-76
2023/09/28 07:32:11;;;;;;;;;;;16.80;99.90;;;;;;5083037;28;19931;-75
2023/09/28 07:34:37;;;;;;;;;;;16.90;99.90;;;;;;5130458;27;19924;-76
2023/09/28 07:37:03;;;;;;;;;;;16.90;99.90;;;;;;5101545;28;20290;-76
2023/09/28 07:39:29;;;;;;;;;;;17.00;99.90;;;;;;5084191;28;20022;-76
2023/09/28 07:41:54;;;;;;;;;;;17.10;99.90;;;;;;5102872;28;20408;-76
2023/09/28 07:44:21;;;;;;;;;;;17.20;99.90;;;;;;5096495;28;19931;-76
2023/09/28 07:46:46;;;;;;;;;;;17.30;99.90;;;;;;5101281;28;20592;-76
2023/09/28 07:49:14;;;;;;;;;;;17.40;99.90;;;;;;5100126;28;19957;-76
2023/09/28 07:51:40;;;;;;;;;;;17.40;99.90;;;;;;5084614;28;19939;-76
2023/09/28 07:54:06;;;;;;;;;;;17.60;99.90;;;;;;5084215;28;19963;-76
2023/09/28 07:56:31;;;;;;;;;;;17.70;99.90;;;;;;5099566;28;19979;-76
2023/09/28 07:58:57;;;;;;;;;;;17.80;99.90;;;;;;5086233;28;19928;-76
2023/09/28 08:01:25;;;;;;;;;;;17.90;99.90;;;;;;5100585;28;20051;-76
2023/09/28 08:03:51;;;;;;;;;;;18.10;99.90;;;;;;5101998;28;19928;-75
2023/09/28 08:06:17;;;;;;;;;;;18.20;99.90;;;;;;5086023;28;19930;-75
2023/09/28 08:08:42;;;;;;;;;;;18.30;99.90;;;;;;5082718;28;19973;-77
2023/09/28 08:11:12;;;;;;;;;;;18.30;99.90;;;;;;5102596;28;20331;-76
2023/09/28 08:13:41;;;;;;;;;;;18.40;99.90;;;;;;5087469;28;20441;-76
2023/09/28 08:16:07;;;;;;;;;;;18.40;99.90;;;;;;5100273;28;19924;-76
2023/09/28 08:18:33;;;;;;;;;;;18.50;99.90;;;;;;5138186;27;19924;-77
2023/09/28 08:20:59;;;;;;;;;;;18.60;99.90;;;;;;5104126;28;20366;-77
2023/09/28 08:23:26;;;;;;;;;;;18.60;99.90;;;;;;5103874;28;19931;-76
2023/09/28 08:25:51;;;;;;;;;;;18.70;99.90;;;;;;5081936;28;19930;-76
2023/09/28 08:28:17;;;;;;;;;;;18.70;99.90;;;;;;5084454;28;19928;-76
2023/09/28 08:30:43;;;;;;;;;;;18.60;99.90;;;;;;5104287;28;19949;-76
2023/09/28 08:33:12;;;;;;;;;;;18.70;99.90;;;;;;5103065;28;19928;-76
2023/09/28 08:35:37;;;;;;;;;;;18.70;99.90;;;;;;5105608;28;19977;-75
2023/09/28 08:38:04;;;;;;;;;;;18.70;99.90;;;;;;5085928;28;19936;-76
2023/09/28 08:40:30;;;;;;;;;;;18.70;99.90;;;;;;5089227;28;20397;-76
2023/09/28 08:42:59;;;;;;;;;;;18.70;99.90;;;;;;5083524;28;19931;-76
2023/09/28 08:45:26;;;;;;;;;;;18.70;99.90;;;;;;5103151;28;19928;-76
2023/09/28 08:47:54;;;;;;;;;;;18.70;99.90;;;;;;5116683;27;19942;-76
2023/09/28 08:50:23;;;;;;;;;;;18.70;99.90;;;;;;5098509;28;19935;-76
2023/09/28 08:52:50;;;;;;;;;;;18.70;99.90;;;;;;5085795;28;20458;-76
2023/09/28 08:55:16;;;;;;;;;;;18.70;99.90;;;;;;5084526;28;19928;-76
2023/09/28 08:57:43;;;;;;;;;;;18.70;99.90;;;;;;5082169;28;19931;-76
2023/09/28 09:00:13;;;;;;;;;;;18.70;99.90;;;;;;5121361;27;19930;-76
2023/09/28 09:02:42;;;;;;;;;;;18.60;99.90;;;;;;5133787;27;20402;-76
2023/09/28 09:05:07;;;;;;;;;;;18.60;99.90;;;;;;5137186;27;20419;-76
2023/09/28 09:07:34;;;;;;;;;;;18.60;99.90;;;;;;5102870;27;20186;-75
2023/09/28 09:10:00;;;;;;;;;;;18.60;99.90;;;;;;5103310;28;19963;-75
2023/09/28 09:12:28;;;;;;;;;;;18.60;99.90;;;;;;5101753;28;20479;-76
2023/09/28 09:14:53;;;;;;;;;;;18.60;99.90;;;;;;5094338;28;19924;-75
2023/09/28 09:17:19;;;;;;;;;;;18.60;99.90;;;;;;5086880;28;20398;-75
2023/09/28 09:19:45;;;;;;;;;;;18.60;99.90;;;;;;5098438;28;19971;-76
2023/09/28 09:22:25;;;;;;;;;;;18.60;99.90;;;;;;5100671;28;19972;-75
2023/09/28 09:24:57;;;;;;;;;;;18.60;99.90;;;;;;5099410;28;19924;-75
2023/09/28 09:27:30;;;;;;;;;;;18.60;99.90;;;;;;5086049;28;19942;-76
2023/09/28 09:29:58;;;;;;;;;;;18.60;99.90;;;;;;5103730;28;19924;-76
2023/09/28 09:32:25;;;;;;;;;;;18.60;99.90;;;;;;5100023;28;19930;-76
2023/09/28 09:34:52;;;;;;;;;;;18.60;99.90;;;;;;5098515;28;19981;-76
2023/09/28 09:37:19;;;;;;;;;;;18.60;99.90;;;;;;5120114;27;20377;-76
2023/09/28 09:39:45;;;;;;;;;;;18.60;99.90;;;;;;5083460;28;19932;-76
2023/09/28 09:42:11;;;;;;;;;;;18.60;99.90;;;;;;5085098;28;19930;-75
2023/09/28 09:44:37;;;;;;;;;;;18.60;99.90;;;;;;5085085;28;20834;-76
2023/09/28 09:47:02;;;;;;;;;;;18.60;99.90;;;;;;5100093;28;20030;-76
2023/09/28 09:49:28;;;;;;;;;;;18.70;99.90;;;;;;5117469;27;20602;-76
2023/09/28 09:51:54;;;;;;;;;;;18.70;99.90;;;;;;5084732;28;19935;-76
2023/09/28 09:54:20;;;;;;;;;;;18.80;99.90;;;;;;5097702;28;19959;-76
2023/09/28 09:56:47;;;;;;;;;;;18.90;99.90;;;;;;5134706;27;20285;-76
2023/09/28 09:59:17;;;;;;;;;;;18.90;99.90;;;;;;5085226;28;19935;-76
2023/09/28 10:01:49;;;;;;;;;;;18.90;99.90;;;;;;5081738;28;19933;-76
2023/09/28 10:04:16;;;;;;;;;;;18.90;99.90;;;;;;5082469;28;20435;-76
2023/09/28 10:06:48;;;;;;;;;;;19.00;99.90;;;;;;5085265;28;20294;-76
2023/09/28 10:09:18;;;;;;;;;;;19.00;99.90;;;;;;5119691;27;20370;-76
2023/09/28 10:11:47;;;;;;;;;;;19.00;99.90;;;;;;5122662;27;20268;-75
2023/09/28 10:14:14;;;;;;;;;;;19.00;99.90;;;;;;5084061;28;19928;-76
2023/09/28 10:16:41;;;;;;;;;;;19.00;99.90;;;;;;5132935;27;19928;-76
2023/09/28 10:19:08;;;;;;;;;;;19.00;99.90;;;;;;5081376;28;19963;-77
2023/09/28 10:21:38;;;;;;;;;;;19.00;99.90;;;;;;5113830;27;19997;-76
2023/09/28 10:24:14;;;;;;;;;;;19.00;99.90;;;;;;5081868;28;19980;-76
2023/09/28 10:26:47;;;;;;;;;;;19.00;99.90;;;;;;5098219;28;19923;-76
2023/09/28 10:29:17;;;;;;;;;;;19.00;99.90;;;;;;5079573;28;19949;-76
2023/09/28 10:31:43;;;;;;;;;;;19.00;99.90;;;;;;5098390;27;19939;-76
2023/09/28 10:34:15;;;;;;;;;;;19.00;99.90;;;;;;5080564;28;19923;-76
2023/09/28 10:36:41;;;;;;;;;;;19.00;99.90;;;;;;5096798;27;19963;-75
2023/09/28 10:39:20;;;;;;;;;;;19.10;99.90;;;;;;5114538;27;19924;-75
2023/09/28 10:41:49;;;;;;;;;;;19.00;99.90;;;;;;5097622;28;19930;-76
2023/09/28 10:44:17;;;;;;;;;;;19.00;99.90;;;;;;5096666;28;19924;-75
2023/09/28 10:46:44;;;;;;;;;;;19.10;99.90;;;;;;5096381;28;19992;-76
2023/09/28 10:49:12;;;;;;;;;;;19.10;99.90;;;;;;5080285;28;19930;-75
2023/09/28 10:51:38;;;;;;;;;;;19.00;99.90;;;;;;5081150;28;20439;-76
2023/09/28 10:54:08;;;;;;;;;;;19.00;99.90;;;;;;5080662;28;19928;-76
2023/09/28 10:56:36;;;;;;;;;;;19.00;99.90;;;;;;5114219;27;20382;-76
2023/09/28 10:59:04;;;;;;;;;;;19.00;99.90;;;;;;5097483;28;19931;-76
2023/09/28 11:01:31;;;;;;;;;;;19.00;99.90;;;;;;5083374;28;20374;-76
2023/09/28 11:03:56;;;;;;;;;;;19.00;99.90;;;;;;5095569;28;20501;-76
2023/09/28 11:06:33;;;;;;;;;;;19.00;99.90;;;;;;5082268;28;20386;-76
2023/09/28 11:09:01;;;;;;;;;;;19.00;99.90;;;;;;5092268;28;19935;-76
2023/09/28 11:11:29;;;;;;;;;;;19.00;99.90;;;;;;5097666;28;19938;-76
2023/09/28 11:13:57;;;;;;;;;;;19.00;99.90;;;;;;5097788;28;19954;-76
2023/09/28 11:16:22;;;;;;;;;;;19.00;99.90;;;;;;5093200;28;19928;-75
2023/09/28 11:18:49;;;;;;;;;;;19.10;99.90;;;;;;5115032;27;19938;-75
2023/09/28 11:21:15;;;;;;;;;;;19.10;99.90;;;;;;5093758;28;19931;-75
2023/09/28 11:23:40;;;;;;;;;;;19.10;99.90;;;;;;5096181;28;20289;-76
2023/09/28 11:26:08;;;;;;;;;;;19.10;99.90;;;;;;5097984;28;19931;-76
2023/09/28 11:28:34;;;;;;;;;;;19.10;99.90;;;;;;5110775;27;20052;-76
2023/09/28 11:31:11;;;;;;;;;;;19.10;99.90;;;;;;5112840;27;20018;-76
2023/09/28 11:33:38;;;;;;;;;;;19.10;99.90;;;;;;5083176;28;19939;-75
2023/09/28 11:36:05;;;;;;;;;;;19.20;99.90;;;;;;5083049;28;19932;-76
2023/09/28 11:38:34;;;;;;;;;;;19.20;99.90;;;;;;5133879;27;19932;-76
2023/09/28 11:41:01;;;;;;;;;;;19.20;99.90;;;;;;5097892;28;19924;-77
2023/09/28 11:43:27;;;;;;;;;;;19.30;99.90;;;;;;5085431;28;19974;-76
2023/09/28 11:45:53;;;;;;;;;;;19.30;99.90;;;;;;5113231;27;19971;-80
2023/09/28 11:48:21;;;;;;;;;;;19.30;99.90;;;;;;5084964;28;20358;-81
2023/09/28 11:50:47;;;;;;;;;;;19.20;99.90;;;;;;5101719;28;19979;-81
2023/09/28 11:53:14;;;;;;;;;;;19.20;99.90;;;;;;5084101;28;19931;-80
2023/09/28 11:55:40;;;;;;;;;;;19.20;99.90;;;;;;5100344;27;19931;-80
2023/09/28 11:58:08;;;;;;;;;;;19.20;99.90;;;;;;5082836;28;19946;-80
2023/09/28 12:00:35;;;;;;;;;;;19.20;99.90;;;;;;5098947;28;20376;-80
2023/09/28 12:03:02;;;;;;;;;;;19.10;99.90;;;;;;5097901;27;19924;-75
2023/09/28 12:05:28;;;;;;;;;;;19.10;99.90;;;;;;5098676;28;20118;-76
2023/09/28 12:07:54;;;;;;;;;;;19.10;99.90;;;;;;5081452;28;20011;-76
2023/09/28 12:10:20;;;;;;;;;;;19.10;99.90;;;;;;5083980;28;20378;-75
2023/09/28 12:12:46;;;;;;;;;;;19.10;99.90;;;;;;5083948;28;19931;-76
2023/09/28 12:15:12;;;;;;;;;;;19.10;99.90;;;;;;5096674;28;19931;-76
2023/09/28 12:17:41;;;;;;;;;;;19.30;99.90;;;;;;5099365;28;19924;-76
2023/09/28 12:20:08;;;;;;;;;;;19.30;99.90;;;;;;5117357;27;19950;-75
2023/09/28 12:22:35;;;;;;;;;;;19.30;99.90;;;;;;5082961;28;20014;-76
2023/09/28 12:25:01;;;;;;;;;;;19.30;99.90;;;;;;5098614;28;19975;-76
2023/09/28 12:27:27;;;;;;;;;;;19.30;99.90;;;;;;5096426;28;19927;-76
2023/09/28 12:29:53;;;;;;;;;;;19.30;99.90;;;;;;5102366;28;20294;-76
2023/09/28 12:32:18;;;;;;;;;;;19.20;99.90;;;;;;5110960;27;19931;-76
2023/09/28 12:34:44;;;;;;;;;;;19.30;99.90;;;;;;5117072;27;19970;-76
2023/09/28 12:37:10;;;;;;;;;;;19.30;99.90;;;;;;5113248;27;19924;-76
2023/09/28 12:39:35;;;;;;;;;;;19.30;99.90;;;;;;5100733;28;20248;-77
2023/09/28 12:42:01;;;;;;;;;;;19.30;99.90;;;;;;5112383;27;19936;-76
2023/09/28 12:44:28;;;;;;;;;;;19.30;99.90;;;;;;5080273;28;20417;-77
2023/09/28 12:46:53;;;;;;;;;;;19.30;99.90;;;;;;5113782;27;19923;-77
2023/09/28 12:49:20;;;;;;;;;;;19.30;99.90;;;;;;5114244;27;19924;-76
2023/09/28 12:51:47;;;;;;;;;;;19.30;99.90;;;;;;5117009;27;19931;-76
2023/09/28 12:54:17;;;;;;;;;;;19.20;99.90;;;;;;5097771;28;20242;-77
2023/09/28 12:56:45;;;;;;;;;;;19.20;99.90;;;;;;5084476;28;19935;-75
2023/09/28 12:59:15;;;;;;;;;;;19.20;99.90;;;;;;5079809;28;20015;-76
2023/09/28 13:01:41;;;;;;;;;;;19.20;99.90;;;;;;5099954;28;19924;-76
2023/09/28 13:04:07;;;;;;;;;;;19.30;99.90;;;;;;5082979;28;19931;-75
2023/09/28 13:06:34;;;;;;;;;;;19.30;99.90;;;;;;5100721;28;19928;-75
2023/09/28 13:09:00;;;;;;;;;;;19.40;99.90;;;;;;5091031;28;20383;-76
2023/09/28 13:11:26;;;;;;;;;;;19.50;99.90;;;;;;5092185;28;19939;-79
2023/09/28 13:13:53;;;;;;;;;;;19.60;99.90;;;;;;5081594;28;19958;-78
2023/09/28 13:16:22;;;;;;;;;;;19.60;99.90;;;;;;5080856;28;19927;-78
2023/09/28 13:18:49;;;;;;;;;;;19.60;99.90;;;;;;5082082;28;20075;-79
2023/09/28 13:21:15;;;;;;;;;;;19.70;99.90;;;;;;5098060;28;20282;-78
2023/09/28 13:23:40;;;;;;;;;;;19.80;99.90;;;;;;5077416;28;19924;-78
2023/09/28 13:26:08;;;;;;;;;;;19.90;99.90;;;;;;5096859;28;20442;-78
2023/09/28 13:28:34;;;;;;;;;;;19.90;99.90;;;;;;5082755;28;20340;-78
2023/09/28 13:31:05;;;;;;;;;;;20.00;99.90;;;;;;5097411;28;19935;-79
2023/09/28 13:33:36;;;;;;;;;;;20.00;99.90;;;;;;5114034;27;19932;-78
2023/09/28 13:36:05;;;;;;;;;;;20.00;99.90;;;;;;5081662;28;19954;-78
2023/09/28 13:38:31;;;;;;;;;;;20.00;99.90;;;;;;5077558;28;20480;-78
2023/09/28 13:40:58;;;;;;;;;;;20.00;99.90;;;;;;5095037;28;19928;-78
2023/09/28 13:43:24;;;;;;;;;;;20.10;99.90;;;;;;5092350;28;19928;-78
2023/09/28 13:45:49;;;;;;;;;;;20.10;99.90;;;;;;5082942;28;19931;-79
2023/09/28 13:48:15;;;;;;;;;;;20.00;99.90;;;;;;5080262;28;20310;-79
2023/09/28 13:50:41;;;;;;;;;;;20.00;99.90;;;;;;5113803;27;19953;-78
2023/09/28 13:53:07;;;;;;;;;;;19.90;99.90;;;;;;5078830;28;20281;-79
2023/09/28 13:55:33;;;;;;;;;;;19.80;99.90;;;;;;5081257;28;20405;-79
2023/09/28 13:57:59;;;;;;;;;;;19.80;99.90;;;;;;5082715;28;19980;-79
2023/09/28 14:02:54;;;;;;;;;;;19.80;99.90;;;;;;5099679;28;19951;-79
2023/09/28 14:05:20;;;;;;;;;;;19.70;99.90;;;;;;5096036;28;20025;-78
2023/09/28 14:07:46;;;;;;;;;;;19.70;99.90;;;;;;5096546;28;20416;-79
2023/09/28 14:10:12;;;;;;;;;;;19.60;99.90;;;;;;5079305;28;19924;-78
2023/09/28 14:12:41;;;;;;;;;;;19.60;99.90;;;;;;5095062;28;19924;-78
2023/09/28 14:15:07;;;;;;;;;;;19.60;99.90;;;;;;5080882;28;20386;-78
2023/09/28 14:17:35;;;;;;;;;;;19.60;99.90;;;;;;5083941;28;19927;-78